createdAt,value
2023-05-15T00:00:44.576Z,12.28
2023-05-15T00:02:46.796Z,12.27
2023-05-15T00:04:48.527Z,12.29
2023-05-15T00:06:50.261Z,12.29
2023-05-15T00:08:51.711Z,12.25
2023-05-15T00:11:01.560Z,12.16
2023-05-15T00:13:03.684Z,11.96
2023-05-15T00:15:05.454Z,11.84
2023-05-15T00:17:07.870Z,11.54
2023-05-15T00:19:09.342Z,11.37
2023-05-15T00:21:10.822Z,11.36
2023-05-15T00:23:12.296Z,11.19
2023-05-15T00:25:13.797Z,11.17
2023-05-15T00:27:15.486Z,11.19
2023-05-15T00:29:16.960Z,11.28
2023-05-15T00:31:18.480Z,11.28
2023-05-15T00:33:19.987Z,11.32
2023-05-15T00:35:21.455Z,11.29
2023-05-15T00:37:23.468Z,11.14
2023-05-15T00:39:24.968Z,11.05
2023-05-15T00:41:28.742Z,11.07
2023-05-15T00:43:30.476Z,11.06
2023-05-15T00:45:32.005Z,11.19
2023-05-15T00:47:33.485Z,11.29
2023-05-15T00:49:35.751Z,11.34
2023-05-15T00:51:37.420Z,11.41
2023-05-15T00:53:38.979Z,11.39
2023-05-15T00:55:40.734Z,11.42
2023-05-15T00:57:42.566Z,11.48
2023-05-15T00:59:43.997Z,11.57
2023-05-15T01:01:45.550Z,11.63
2023-05-15T01:03:47.003Z,11.67
2023-05-15T01:05:48.494Z,11.60
2023-05-15T01:07:55.115Z,11.32
2023-05-15T01:09:56.560Z,11.18
2023-05-15T01:11:58.035Z,11.18
2023-05-15T01:13:59.537Z,11.28
2023-05-15T01:16:00.974Z,11.32
2023-05-15T01:18:03.442Z,11.27
2023-05-15T01:20:06.483Z,11.12
2023-05-15T01:22:11.412Z,11.02
2023-05-15T01:24:21.850Z,11.10
2023-05-15T01:26:29.213Z,11.15
2023-05-15T01:28:38.533Z,11.18
2023-05-15T01:30:41.571Z,11.23
2023-05-15T01:32:55.345Z,11.27
2023-05-15T01:35:11.220Z,11.35
2023-05-15T01:37:12.767Z,11.33
2023-05-15T01:39:14.346Z,11.32
2023-05-15T01:41:18.898Z,11.34
2023-05-15T01:43:22.459Z,11.42
2023-05-15T01:45:24.508Z,11.45
2023-05-15T01:47:53.199Z,11.53
2023-05-15T01:49:54.714Z,11.60
2023-05-15T01:51:58.739Z,11.62
2023-05-15T01:54:00.539Z,11.66
2023-05-15T01:56:02.489Z,11.64
2023-05-15T01:58:03.992Z,11.66
2023-05-15T02:00:05.854Z,11.71
2023-05-15T02:02:07.448Z,11.69
2023-05-15T02:04:08.916Z,11.70
2023-05-15T02:06:10.438Z,11.72
2023-05-15T02:08:11.968Z,11.75
2023-05-15T02:10:13.495Z,11.78
2023-05-15T02:12:14.909Z,11.77
2023-05-15T02:14:17.264Z,11.48
2023-05-15T02:16:18.747Z,11.13
2023-05-15T02:18:20.644Z,11.12
2023-05-15T02:20:22.098Z,11.22
2023-05-15T02:22:23.520Z,11.30
2023-05-15T02:24:25.011Z,11.38
2023-05-15T02:26:31.015Z,11.45
2023-05-15T02:28:36.633Z,11.50
2023-05-15T02:30:38.162Z,11.54
2023-05-15T02:32:58.459Z,11.58
2023-05-15T02:35:19.475Z,11.59
2023-05-15T02:37:21.434Z,11.61
2023-05-15T02:39:25.111Z,11.68
2023-05-15T02:41:26.669Z,11.72
2023-05-15T02:43:28.167Z,11.71
2023-05-15T02:45:29.686Z,11.69
2023-05-15T02:47:31.241Z,11.70
2023-05-15T02:49:32.831Z,11.69
2023-05-15T02:51:34.256Z,11.67
2023-05-15T02:53:41.908Z,11.54
2023-05-15T02:55:43.477Z,11.55
2023-05-15T02:57:44.975Z,11.59
2023-05-15T02:59:46.426Z,11.66
2023-05-15T03:01:48.100Z,11.68
2023-05-15T03:03:49.684Z,11.75
2023-05-15T03:05:51.250Z,11.79
2023-05-15T03:07:52.694Z,11.82
2023-05-15T03:09:54.193Z,11.86
2023-05-15T03:11:55.662Z,11.90
2023-05-15T03:15:58.544Z,11.87
2023-05-15T03:18:00.020Z,11.88
2023-05-15T03:20:01.535Z,11.88
2023-05-15T03:22:03.035Z,11.88
2023-05-15T03:24:04.656Z,11.96
2023-05-15T03:26:06.123Z,11.96
2023-05-15T03:28:07.593Z,11.96
2023-05-15T03:30:09.366Z,11.96
2023-05-15T03:32:10.930Z,11.97
2023-05-15T03:34:12.427Z,11.99
2023-05-15T03:36:13.889Z,12.00
2023-05-15T03:38:15.404Z,11.98
2023-05-15T03:40:16.971Z,11.96
2023-05-15T03:42:23.673Z,11.99
2023-05-15T03:44:25.160Z,12.01
2023-05-15T03:46:26.647Z,12.01
2023-05-15T03:48:28.221Z,11.91
2023-05-15T03:50:29.640Z,11.85
2023-05-15T03:52:31.194Z,11.72
2023-05-15T03:54:32.762Z,11.65
2023-05-15T03:56:34.252Z,11.58
2023-05-15T03:58:35.769Z,11.59
2023-05-15T04:00:37.244Z,11.60
2023-05-15T04:02:38.945Z,11.65
2023-05-15T04:04:40.556Z,11.69
2023-05-15T04:06:41.983Z,11.74
2023-05-15T04:08:43.457Z,11.76
2023-05-15T04:10:44.915Z,11.69
2023-05-15T04:12:46.417Z,11.70
2023-05-15T04:14:47.878Z,11.76
2023-05-15T04:16:49.393Z,11.86
2023-05-15T04:18:50.947Z,11.92
2023-05-15T04:20:52.835Z,12.00
2023-05-15T04:22:54.271Z,12.04
2023-05-15T04:24:55.742Z,12.09
2023-05-15T04:26:57.294Z,12.08
2023-05-15T04:29:03.850Z,12.09
2023-05-15T04:31:06.088Z,12.16
2023-05-15T04:33:07.865Z,12.22
2023-05-15T04:35:10.650Z,12.27
2023-05-15T04:37:12.255Z,12.31
2023-05-15T04:39:13.852Z,12.35
2023-05-15T04:41:15.337Z,12.38
2023-05-15T04:43:16.924Z,12.40
2023-05-15T04:45:18.417Z,12.40
2023-05-15T04:47:20.051Z,12.40
2023-05-15T04:49:21.475Z,12.43
2023-05-15T04:51:22.894Z,12.45
2023-05-15T04:53:24.455Z,12.45
2023-05-15T04:55:25.998Z,12.48
2023-05-15T04:57:28.037Z,12.40
2023-05-15T04:59:29.876Z,12.39
2023-05-15T05:01:31.398Z,12.40
2023-05-15T05:03:32.973Z,12.42
2023-05-15T05:05:34.462Z,12.42
2023-05-15T05:07:35.959Z,12.40
2023-05-15T05:09:38.487Z,12.40
2023-05-15T05:11:43.665Z,12.38
2023-05-15T05:13:45.117Z,12.38
2023-05-15T05:15:46.613Z,12.38
2023-05-15T05:17:48.169Z,12.42
2023-05-15T05:19:49.666Z,12.47
2023-05-15T05:21:51.152Z,12.44
2023-05-15T05:23:52.662Z,12.37
2023-05-15T05:25:54.126Z,12.33
2023-05-15T05:27:55.701Z,11.97
2023-05-15T05:29:57.224Z,11.70
2023-05-15T05:31:58.864Z,11.55
2023-05-15T05:34:00.433Z,11.53
2023-05-15T05:36:01.971Z,11.45
2023-05-15T05:38:03.469Z,11.54
2023-05-15T05:40:06.561Z,11.67
2023-05-15T05:42:08.064Z,11.83
2023-05-15T05:44:09.547Z,12.04
2023-05-15T05:46:11.013Z,12.24
2023-05-15T05:48:13.542Z,12.38
2023-05-15T05:50:15.019Z,12.48
2023-05-15T05:52:16.769Z,12.60
2023-05-15T05:54:18.613Z,12.76
2023-05-15T05:56:20.076Z,12.89
2023-05-15T05:58:25.572Z,12.96
2023-05-15T06:00:27.822Z,13.00
2023-05-15T06:02:29.451Z,13.07
2023-05-15T06:04:31.678Z,12.88
2023-05-15T06:06:33.833Z,12.90
2023-05-15T06:08:35.344Z,13.01
2023-05-15T06:10:36.819Z,13.09
2023-05-15T06:12:38.374Z,13.19
2023-05-15T06:14:39.825Z,13.21
2023-05-15T06:16:41.289Z,13.24
2023-05-15T06:18:42.937Z,13.35
2023-05-15T06:20:44.436Z,13.39
2023-05-15T06:22:45.894Z,13.40
2023-05-15T06:24:47.329Z,13.40
2023-05-15T06:26:50.355Z,13.45
2023-05-15T06:28:51.985Z,13.47
2023-05-15T06:30:53.569Z,13.48
2023-05-15T06:32:55.086Z,13.59
2023-05-15T06:34:56.566Z,13.82
2023-05-15T06:36:58.131Z,14.01
2023-05-15T06:38:59.622Z,14.12
2023-05-15T06:41:01.058Z,14.21
2023-05-15T06:43:02.524Z,14.25
2023-05-15T06:45:04.220Z,14.43
2023-05-15T06:47:06.094Z,14.44
2023-05-15T06:49:07.741Z,14.54
2023-05-15T06:51:10.831Z,14.65
2023-05-15T06:53:14.393Z,14.71
2023-05-15T06:55:16.182Z,14.67
2023-05-15T06:57:18.007Z,14.77
2023-05-15T06:59:19.524Z,14.85
2023-05-15T07:01:22.244Z,14.93
2023-05-15T07:03:23.902Z,14.93
2023-05-15T07:05:25.508Z,15.01
2023-05-15T07:07:27.168Z,15.11
2023-05-15T07:09:28.876Z,15.18
2023-05-15T07:11:30.437Z,15.23
2023-05-15T07:13:31.891Z,15.28
2023-05-15T07:15:33.326Z,15.28
2023-05-15T07:17:35.277Z,15.11
2023-05-15T07:19:36.997Z,15.13
2023-05-15T07:21:39.343Z,15.02
2023-05-15T07:23:40.730Z,14.94
2023-05-15T07:25:42.183Z,14.73
2023-05-15T07:27:43.674Z,14.48
2023-05-15T07:29:45.171Z,14.57
2023-05-15T07:31:46.645Z,14.77
2023-05-15T07:33:48.172Z,14.87
2023-05-15T07:35:50.882Z,14.86
2023-05-15T07:37:52.370Z,14.95
2023-05-15T07:39:53.914Z,14.94
2023-05-15T07:41:55.458Z,15.00
2023-05-15T07:43:56.927Z,14.99
2023-05-15T07:45:58.434Z,14.89
2023-05-15T07:48:00.149Z,14.86
2023-05-15T07:50:01.838Z,14.83
2023-05-15T07:52:03.291Z,14.83
2023-05-15T07:54:04.835Z,14.82
2023-05-15T07:56:06.308Z,14.72
2023-05-15T07:58:08.213Z,14.49
2023-05-15T08:00:12.873Z,14.43
2023-05-15T08:02:14.476Z,14.40
2023-05-15T08:04:16.000Z,14.53
2023-05-15T08:06:17.563Z,14.58
2023-05-15T08:08:19.045Z,14.59
2023-05-15T08:10:20.623Z,14.66
2023-05-15T08:12:22.179Z,14.72
2023-05-15T08:14:23.667Z,14.70
2023-05-15T08:16:25.296Z,14.68
2023-05-15T08:18:26.957Z,14.73
2023-05-15T08:20:28.480Z,14.76
2023-05-15T08:22:30.635Z,14.73
2023-05-15T08:24:32.159Z,14.64
2023-05-15T08:26:33.779Z,14.72
2023-05-15T08:28:35.239Z,14.77
2023-05-15T08:30:36.692Z,14.73
2023-05-15T08:32:38.249Z,14.72
2023-05-15T08:34:39.774Z,14.57
2023-05-15T08:36:41.260Z,14.48
2023-05-15T08:38:42.718Z,14.42
2023-05-15T08:40:46.213Z,14.52
2023-05-15T08:42:48.886Z,14.51
2023-05-15T08:44:50.638Z,14.63
2023-05-15T08:46:52.548Z,14.70
2023-05-15T08:48:54.003Z,14.88
2023-05-15T08:50:58.536Z,14.89
2023-05-15T08:53:01.666Z,14.79
2023-05-15T08:55:03.768Z,14.82
2023-05-15T08:57:05.461Z,14.80
2023-05-15T08:59:06.939Z,14.70
2023-05-15T09:01:08.457Z,14.74
2023-05-15T09:03:14.158Z,14.80
2023-05-15T09:05:15.869Z,14.88
2023-05-15T09:07:17.363Z,14.98
2023-05-15T09:09:18.813Z,15.02
2023-05-15T09:11:21.777Z,15.07
2023-05-15T09:13:23.336Z,15.11
2023-05-15T09:15:25.593Z,15.17
2023-05-15T09:17:27.322Z,15.23
2023-05-15T09:19:28.894Z,15.28
2023-05-15T09:21:33.857Z,15.25
2023-05-15T09:23:35.295Z,15.26
2023-05-15T09:25:38.242Z,15.07
2023-05-15T09:27:43.180Z,14.93
2023-05-15T09:29:45.279Z,15.07
2023-05-15T09:31:47.366Z,15.22
2023-05-15T09:33:49.400Z,15.23
2023-05-15T09:35:51.285Z,15.14
2023-05-15T09:37:57.515Z,15.16
2023-05-15T09:40:11.846Z,15.24
2023-05-15T09:42:13.955Z,15.18
2023-05-15T09:44:21.414Z,15.18
2023-05-15T09:46:23.747Z,15.26
2023-05-15T09:48:25.392Z,15.31
2023-05-15T09:50:33.004Z,15.41
2023-05-15T09:52:34.455Z,15.48
2023-05-15T09:54:36.065Z,15.27
2023-05-15T09:56:37.670Z,15.10
2023-05-15T09:58:39.212Z,15.01
2023-05-15T10:00:47.770Z,15.14
2023-05-15T10:02:50.642Z,15.26
2023-05-15T10:04:56.544Z,15.38
2023-05-15T10:06:57.993Z,15.40
2023-05-15T10:09:00.165Z,15.41
2023-05-15T10:11:01.736Z,15.46
2023-05-15T10:13:05.819Z,15.54
2023-05-15T10:15:07.438Z,15.61
2023-05-15T10:17:08.919Z,15.73
2023-05-15T10:19:10.903Z,15.80
2023-05-15T10:21:12.462Z,15.79
2023-05-15T10:23:13.920Z,15.53
2023-05-15T10:25:28.652Z,15.51
2023-05-15T10:27:30.712Z,15.60
2023-05-15T10:29:32.230Z,15.72
2023-05-15T10:31:34.454Z,15.82
2023-05-15T10:33:35.955Z,15.88
2023-05-15T10:35:38.379Z,15.95
2023-05-15T10:37:40.608Z,16.01
2023-05-15T10:39:42.111Z,16.03
2023-05-15T10:41:43.587Z,16.10
2023-05-15T10:43:45.033Z,16.09
2023-05-15T10:45:46.828Z,15.75
2023-05-15T10:47:48.410Z,15.50
2023-05-15T10:49:49.904Z,15.59
2023-05-15T10:51:52.127Z,15.71
2023-05-15T10:53:53.900Z,15.82
2023-05-15T10:55:55.489Z,15.91
2023-05-15T10:57:57.265Z,15.96
2023-05-15T10:59:58.721Z,16.03
2023-05-15T11:02:19.143Z,16.08
2023-05-15T11:04:20.855Z,16.08
2023-05-15T11:06:28.401Z,16.05
2023-05-15T11:08:30.355Z,15.91
2023-05-15T11:10:31.834Z,15.89
2023-05-15T11:12:53.583Z,15.93
2023-05-15T11:14:55.099Z,15.97
2023-05-15T11:16:58.044Z,15.91
2023-05-15T11:18:59.523Z,15.73
2023-05-15T11:21:01.088Z,15.53
2023-05-15T11:23:02.956Z,15.57
2023-05-15T11:25:12.602Z,15.62
2023-05-15T11:27:17.575Z,15.69
2023-05-15T11:29:19.504Z,15.79
2023-05-15T11:31:21.153Z,15.87
2023-05-15T11:33:22.659Z,15.87
2023-05-15T11:35:26.990Z,16.00
2023-05-15T11:37:28.419Z,16.13
2023-05-15T11:39:29.935Z,16.19
2023-05-15T11:41:31.883Z,16.32
2023-05-15T11:43:33.592Z,16.51
2023-05-15T11:45:39.417Z,16.62
2023-05-15T11:47:40.949Z,16.74
2023-05-15T11:49:42.498Z,16.89
2023-05-15T11:51:44.002Z,17.05
2023-05-15T11:53:45.609Z,17.19
2023-05-15T11:55:47.104Z,17.30
2023-05-15T11:57:48.879Z,17.40
2023-05-15T11:59:53.737Z,17.45
2023-05-15T12:01:55.209Z,17.47
2023-05-15T12:03:56.870Z,17.49
2023-05-15T12:06:00.325Z,17.43
2023-05-15T12:08:02.380Z,17.50
2023-05-15T12:10:04.025Z,17.58
2023-05-15T12:12:08.307Z,17.59
2023-05-15T12:14:12.943Z,17.56
2023-05-15T12:16:14.442Z,17.54
2023-05-15T12:18:15.974Z,17.46
2023-05-15T12:20:17.956Z,17.46
2023-05-15T12:22:19.493Z,17.39
2023-05-15T12:24:21.518Z,17.42
2023-05-15T12:26:23.264Z,17.41
2023-05-15T12:28:24.818Z,17.39
2023-05-15T12:30:27.086Z,17.33
2023-05-15T12:32:30.127Z,17.37
2023-05-15T12:34:31.702Z,17.49
2023-05-15T12:36:33.270Z,17.61
2023-05-15T12:38:35.116Z,17.73
2023-05-15T12:40:36.954Z,17.81
2023-05-15T12:42:42.193Z,17.84
2023-05-15T12:44:44.205Z,17.79
2023-05-15T12:46:46.267Z,17.81
2023-05-15T12:48:47.836Z,17.96
2023-05-15T12:50:50.121Z,18.14
2023-05-15T12:52:52.944Z,18.29
2023-05-15T12:54:54.477Z,18.29
2023-05-15T12:56:57.480Z,17.87
2023-05-15T12:58:59.232Z,17.83
2023-05-15T13:01:03.202Z,17.59
2023-05-15T13:03:05.036Z,17.81
2023-05-15T13:05:07.201Z,17.97
2023-05-15T13:07:08.706Z,18.06
2023-05-15T13:09:10.173Z,18.15
2023-05-15T13:11:13.019Z,18.26
2023-05-15T13:13:14.811Z,18.42
2023-05-15T13:15:25.541Z,18.56
2023-05-15T13:17:29.439Z,18.71
2023-05-15T13:19:30.974Z,18.70
2023-05-15T13:21:33.039Z,18.71
2023-05-15T13:23:34.502Z,18.91
2023-05-15T13:25:36.138Z,19.15
2023-05-15T13:27:37.554Z,19.30
2023-05-15T13:29:39.015Z,19.41
2023-05-15T13:31:40.527Z,19.47
2023-05-15T13:33:42.058Z,19.24
2023-05-15T13:35:43.522Z,18.97
2023-05-15T13:37:44.986Z,18.76
2023-05-15T13:39:46.436Z,18.95
2023-05-15T13:41:47.941Z,19.02
2023-05-15T13:43:49.484Z,19.18
2023-05-15T13:45:51.006Z,19.33
2023-05-15T13:47:52.723Z,19.58
2023-05-15T13:49:54.258Z,19.64
2023-05-15T13:51:55.733Z,19.76
2023-05-15T13:53:57.242Z,19.84
2023-05-15T13:58:17.418Z,19.94
2023-05-15T14:00:19.813Z,20.11
2023-05-15T14:02:23.520Z,20.21
2023-05-15T14:04:25.114Z,20.27
2023-05-15T14:06:27.890Z,20.37
2023-05-15T14:08:29.404Z,20.53
2023-05-15T14:10:30.944Z,20.58
2023-05-15T14:12:32.660Z,20.66
2023-05-15T14:14:34.139Z,20.76
2023-05-15T14:16:35.653Z,20.68
2023-05-15T14:18:37.236Z,20.52
2023-05-15T14:20:38.883Z,20.53
2023-05-15T14:22:40.418Z,20.39
2023-05-15T14:24:41.914Z,20.30
2023-05-15T14:26:44.470Z,20.31
2023-05-15T14:28:46.191Z,20.19
2023-05-15T14:30:47.617Z,19.94
2023-05-15T14:32:49.088Z,19.86
2023-05-15T14:34:50.677Z,19.98
2023-05-15T14:36:52.167Z,20.16
2023-05-15T14:38:53.591Z,20.02
2023-05-15T14:40:55.021Z,19.82
2023-05-15T14:42:56.460Z,19.62
2023-05-15T14:44:57.989Z,19.53
2023-05-15T14:47:06.964Z,19.50
2023-05-15T14:49:08.452Z,19.73
2023-05-15T14:51:09.988Z,19.78
2023-05-15T14:53:11.467Z,19.74
2023-05-15T14:55:12.986Z,19.63
2023-05-15T14:57:16.307Z,19.51
2023-05-15T14:59:17.763Z,19.28
2023-05-15T15:01:19.543Z,19.23
2023-05-15T15:03:22.097Z,19.29
2023-05-15T15:05:23.744Z,19.46
2023-05-15T15:07:28.990Z,19.74
2023-05-15T15:09:30.531Z,19.98
2023-05-15T15:11:32.062Z,20.12
2023-05-15T15:13:33.536Z,20.15
2023-05-15T15:15:35.101Z,20.16
2023-05-15T15:17:36.621Z,20.25
2023-05-15T15:19:38.141Z,20.37
2023-05-15T15:21:39.795Z,20.50
2023-05-15T15:23:41.206Z,20.43
2023-05-15T15:25:42.672Z,20.36
2023-05-15T15:27:44.283Z,20.30
2023-05-15T15:29:45.733Z,20.34
2023-05-15T15:31:47.229Z,20.35
2023-05-15T15:33:48.729Z,20.14
2023-05-15T15:35:50.258Z,20.05
2023-05-15T15:37:52.083Z,19.74
2023-05-15T15:39:53.615Z,19.71
2023-05-15T15:41:55.150Z,19.64
2023-05-15T15:43:56.606Z,19.51
2023-05-15T15:45:58.088Z,19.55
2023-05-15T15:47:59.800Z,19.41
2023-05-15T15:50:01.347Z,19.55
2023-05-15T15:52:02.811Z,19.75
2023-05-15T15:54:04.391Z,19.92
2023-05-15T15:56:06.692Z,19.84
2023-05-15T15:58:08.238Z,19.86
2023-05-15T16:00:10.014Z,19.86
2023-05-15T16:02:11.779Z,19.65
2023-05-15T16:04:13.421Z,19.60
2023-05-15T16:06:15.064Z,19.75
2023-05-15T16:08:16.662Z,19.63
2023-05-15T16:10:18.192Z,19.44
2023-05-15T16:12:19.683Z,19.23
2023-05-15T16:14:21.408Z,19.21
2023-05-15T16:16:22.934Z,19.11
2023-05-15T16:18:24.451Z,19.00
2023-05-15T16:20:26.218Z,18.94
2023-05-15T16:22:27.873Z,18.94
2023-05-15T16:24:29.483Z,18.87
2023-05-15T16:26:31.031Z,18.63
2023-05-15T16:28:32.503Z,18.42
2023-05-15T16:30:48.264Z,18.45
2023-05-15T16:32:50.929Z,18.32
2023-05-15T16:34:52.480Z,18.13
2023-05-15T16:36:53.952Z,18.07
2023-05-15T16:38:55.548Z,17.84
2023-05-15T16:40:57.155Z,17.81
2023-05-15T16:42:58.800Z,17.76
2023-05-15T16:45:00.473Z,17.69
2023-05-15T16:47:02.035Z,17.62
2023-05-15T16:49:03.839Z,17.52
2023-05-15T16:51:05.500Z,17.34
2023-05-15T16:53:07.418Z,17.23
2023-05-15T16:55:08.973Z,17.17
2023-05-15T16:57:10.606Z,17.16
2023-05-15T16:59:12.104Z,17.19
2023-05-15T17:01:13.560Z,17.13
2023-05-15T17:03:15.198Z,17.06
2023-05-15T17:05:17.384Z,16.99
2023-05-15T17:07:18.838Z,16.91
2023-05-15T17:09:21.265Z,16.89
2023-05-15T17:11:22.750Z,16.79
2023-05-15T17:13:25.483Z,16.73
2023-05-15T17:15:28.624Z,16.67
2023-05-15T17:17:30.218Z,16.66
2023-05-15T17:19:32.552Z,16.64
2023-05-15T17:21:35.053Z,16.57
2023-05-15T17:23:36.537Z,16.59
2023-05-15T17:25:37.966Z,16.58
2023-05-15T17:27:41.536Z,16.56
2023-05-15T17:29:43.277Z,16.55
2023-05-15T17:31:45.648Z,16.49
2023-05-15T17:33:47.820Z,16.51
2023-05-15T17:35:49.401Z,16.54
2023-05-15T17:37:51.686Z,16.58
2023-05-15T17:39:54.608Z,16.58
2023-05-15T17:41:56.068Z,16.54
2023-05-15T17:43:57.493Z,16.47
2023-05-15T17:46:00.528Z,16.42
2023-05-15T17:48:04.179Z,16.39
2023-05-15T17:50:06.182Z,16.40
2023-05-15T17:52:07.770Z,16.45
2023-05-15T17:54:09.243Z,16.49
2023-05-15T17:56:10.859Z,16.49
2023-05-15T17:58:12.327Z,16.47
2023-05-15T18:00:14.540Z,16.31
2023-05-15T18:02:16.017Z,16.28
2023-05-15T18:04:17.566Z,16.29
2023-05-15T18:06:19.044Z,16.31
2023-05-15T18:08:20.636Z,16.31
2023-05-15T18:10:22.115Z,16.27
2023-05-15T18:12:23.656Z,16.21
2023-05-15T18:14:25.092Z,16.13
2023-05-15T18:16:26.853Z,16.08
2023-05-15T18:18:28.518Z,16.02
2023-05-15T18:20:30.035Z,15.97
2023-05-15T18:22:31.642Z,15.95
2023-05-15T18:24:33.099Z,15.98
2023-05-15T18:26:34.602Z,16.02
2023-05-15T18:28:36.157Z,16.04
2023-05-15T18:30:37.567Z,16.02
2023-05-15T18:32:39.238Z,16.01
2023-05-15T18:34:40.899Z,15.99
2023-05-15T18:36:42.549Z,15.93
2023-05-15T18:38:43.984Z,15.86
2023-05-15T18:40:48.653Z,15.87
2023-05-15T18:42:50.253Z,15.93
2023-05-15T18:44:51.996Z,15.97
2023-05-15T18:46:53.481Z,16.00
2023-05-15T18:48:55.044Z,16.02
2023-05-15T18:50:56.493Z,16.00
2023-05-15T18:52:57.988Z,15.99
2023-05-15T18:55:00.563Z,16.00
2023-05-15T18:57:02.091Z,15.92
2023-05-15T18:59:03.563Z,15.70
2023-05-15T19:01:05.032Z,15.59
2023-05-15T19:03:08.352Z,15.51
2023-05-15T19:05:10.126Z,15.53
2023-05-15T19:07:11.602Z,15.52
2023-05-15T19:09:13.078Z,15.57
2023-05-15T19:11:15.634Z,15.61
2023-05-15T19:13:17.340Z,15.66
2023-05-15T19:15:19.682Z,15.66
2023-05-15T19:17:21.656Z,15.60
2023-05-15T19:19:23.624Z,15.54
2023-05-15T19:21:25.360Z,15.57
2023-05-15T19:23:26.851Z,15.60
2023-05-15T19:25:28.394Z,15.53
2023-05-15T19:27:29.954Z,15.49
2023-05-15T19:29:32.178Z,15.43
2023-05-15T19:31:33.912Z,15.40
2023-05-15T19:33:35.568Z,15.35
2023-05-15T19:35:37.642Z,15.31
2023-05-15T19:37:39.334Z,15.35
2023-05-15T19:39:41.077Z,15.41
2023-05-15T19:41:42.775Z,15.37
2023-05-15T19:43:46.512Z,15.30
2023-05-15T19:45:47.946Z,15.11
2023-05-15T19:47:49.469Z,14.99
2023-05-15T19:49:51.001Z,15.05
2023-05-15T19:51:52.895Z,15.15
2023-05-15T19:53:54.422Z,15.27
2023-05-15T19:55:56.556Z,15.33
2023-05-15T19:57:57.996Z,15.34
2023-05-15T19:59:59.471Z,15.31
2023-05-15T20:02:01.788Z,15.34
2023-05-15T20:04:03.468Z,15.39
2023-05-15T20:06:05.135Z,15.42
2023-05-15T20:08:06.605Z,15.44
2023-05-15T20:10:09.164Z,15.47
2023-05-15T20:12:11.039Z,15.48
2023-05-15T20:14:13.959Z,15.52
2023-05-15T20:16:16.720Z,15.54
2023-05-15T20:18:18.561Z,15.56
2023-05-15T20:20:20.073Z,15.59
2023-05-15T20:22:21.533Z,15.59
2023-05-15T20:24:25.823Z,15.61
2023-05-15T20:26:27.420Z,15.61
2023-05-15T20:28:29.028Z,15.64
2023-05-15T20:30:30.477Z,15.61
2023-05-15T20:32:32.115Z,15.53
2023-05-15T20:34:34.539Z,15.53
2023-05-15T20:36:38.989Z,15.50
2023-05-15T20:38:40.601Z,15.46
2023-05-15T20:40:42.052Z,15.40
2023-05-15T20:42:43.458Z,15.38
2023-05-15T20:44:45.323Z,15.27
2023-05-15T20:46:46.814Z,15.28
2023-05-15T20:48:48.459Z,15.17
2023-05-15T20:50:53.178Z,15.03
2023-05-15T20:52:54.689Z,14.88
2023-05-15T20:54:56.168Z,14.89
2023-05-15T20:56:57.590Z,14.95
2023-05-15T20:58:59.878Z,14.93
2023-05-15T21:01:01.643Z,14.91
2023-05-15T21:03:03.329Z,14.79
2023-05-15T21:05:04.958Z,14.74
2023-05-15T21:07:06.954Z,14.81
2023-05-15T21:09:08.751Z,14.78
2023-05-15T21:11:10.223Z,14.67
2023-05-15T21:13:12.040Z,14.66
2023-05-15T21:15:13.546Z,14.70
2023-05-15T21:17:15.144Z,14.76
2023-05-15T21:19:16.726Z,14.78
2023-05-15T21:21:18.596Z,14.84
2023-05-15T21:23:21.295Z,14.90
2023-05-15T21:25:22.827Z,14.82
2023-05-15T21:27:24.326Z,14.82
2023-05-15T21:29:25.768Z,14.60
2023-05-15T21:31:27.649Z,14.64
2023-05-15T21:33:29.199Z,14.66
2023-05-15T21:35:31.842Z,14.67
2023-05-15T21:37:33.430Z,14.74
2023-05-15T21:39:34.949Z,14.81
2023-05-15T21:41:36.433Z,14.86
2023-05-15T21:43:37.895Z,14.91
2023-05-15T21:45:39.433Z,14.90
2023-05-15T21:47:40.963Z,14.83
2023-05-15T21:49:42.426Z,14.84
2023-05-15T21:51:43.955Z,14.75
2023-05-15T21:53:45.743Z,14.74
2023-05-15T21:55:48.343Z,14.74
2023-05-15T21:57:50.263Z,14.71
2023-05-15T21:59:51.690Z,14.76
2023-05-15T22:01:53.252Z,14.83
2023-05-15T22:03:54.815Z,14.92
2023-05-15T22:05:56.500Z,14.98
2023-05-15T22:07:58.057Z,14.94
2023-05-15T22:09:59.638Z,14.96
2023-05-15T22:12:01.102Z,14.98
2023-05-15T22:14:03.110Z,14.98
2023-05-15T22:16:04.669Z,14.97
2023-05-15T22:18:06.223Z,14.95
2023-05-15T22:20:11.468Z,14.93
2023-05-15T22:22:12.903Z,14.98
2023-05-15T22:24:14.365Z,14.95
2023-05-15T22:26:15.983Z,14.98
2023-05-15T22:28:17.585Z,15.05
2023-05-15T22:30:19.147Z,15.10
2023-05-15T22:32:20.751Z,15.14
2023-05-15T22:34:22.315Z,15.21
2023-05-15T22:36:23.795Z,15.23
2023-05-15T22:38:25.380Z,15.24
2023-05-15T22:40:27.276Z,15.26
2023-05-15T22:42:29.114Z,15.22
2023-05-15T22:44:30.604Z,15.24
2023-05-15T22:46:32.113Z,15.25
2023-05-15T22:48:34.170Z,15.26
2023-05-15T22:50:36.239Z,15.27
2023-05-15T22:52:38.427Z,15.28
2023-05-15T22:54:40.219Z,15.28
2023-05-15T22:56:42.089Z,15.30
2023-05-15T22:58:43.647Z,15.34
2023-05-15T23:00:45.423Z,15.36
2023-05-15T23:02:46.922Z,15.38
2023-05-15T23:04:48.423Z,15.41
2023-05-15T23:06:49.915Z,15.42
2023-05-15T23:08:51.569Z,15.44
2023-05-15T23:10:53.423Z,15.43
2023-05-15T23:12:55.128Z,15.42
2023-05-15T23:14:56.552Z,15.43
2023-05-15T23:16:57.999Z,15.44
2023-05-15T23:19:00.015Z,15.44
2023-05-15T23:21:02.542Z,15.43
2023-05-15T23:23:04.084Z,15.44
2023-05-15T23:25:06.241Z,15.45
2023-05-15T23:27:07.964Z,15.45
2023-05-15T23:29:09.603Z,15.45
2023-05-15T23:31:12.840Z,15.46
2023-05-15T23:33:14.436Z,15.45
2023-05-15T23:35:16.070Z,15.43
2023-05-15T23:37:17.591Z,15.42
2023-05-15T23:39:19.038Z,15.41
2023-05-15T23:41:22.106Z,15.41
2023-05-15T23:43:23.574Z,15.39
2023-05-15T23:45:25.051Z,15.40
2023-05-15T23:47:26.569Z,15.40
2023-05-15T23:49:28.067Z,15.38
2023-05-15T23:51:29.749Z,15.39
2023-05-15T23:53:31.353Z,15.39
2023-05-15T23:55:33.194Z,15.38
2023-05-15T23:57:34.695Z,15.36
2023-05-15T23:59:36.361Z,15.35
